Time;durP1;ratioP1;P1;durP2;ratioP2;P2;SDS_P1;SDS_P2;PMS_P1;PMS_P2;Temp;Humidity;BMP_temperature;BMP_pressure;BME280_temperature;BME280_humidity;BME280_pressure;Samples;Min_cycle;Max_cycle;Signal;HPM_P1;HPM_P2
2022/03/08 00:03:36;;;;;;;10.60;8.87;;;;;;;4.81;69.05;99433.03;5128596;23;20046;-89
2022/03/08 00:25:50;;;;;;;15.27;11.40;;;;;;;5.17;68.86;99461.91;5210604;23;20042;-88
2022/03/08 00:50:39;;;;;;;12.27;10.10;;;;;;;1.83;68.81;98908.22;5165186;23;20057;-88
2022/03/08 00:55:51;;;;;;;13.27;10.93;;;;;;;5.14;68.98;99460.41;5196794;23;20042;-87
2022/03/08 00:58:16;;;;;;;12.23;9.70;;;;;;;2.53;68.84;99013.84;5017816;28;20077;-87
2022/03/08 01:00:42;;;;;;;14.23;10.53;;;;;;;4.33;69.01;99370.41;5016164;28;20033;-88
2022/03/08 01:03:08;;;;;;;14.87;11.57;;;;;;;3.99;68.81;99247.31;5016288;28;20014;-88
2022/03/08 01:05:34;;;;;;;12.97;10.67;;;;;;;3.04;68.67;99090.88;5016965;28;20023;-88
2022/03/08 01:08:01;;;;;;;15.97;11.03;;;;;;;4.12;68.69;99315.75;5015739;28;20033;-88
2022/03/08 01:10:28;;;;;;;13.67;10.30;;;;;;;2.84;69.04;99059.59;5017263;28;20010;-89
2022/03/08 01:12:54;;;;;;;14.40;11.73;;;;;;;2.77;68.66;99081.97;5015643;28;20022;-88
2022/03/08 01:15:23;;;;;;;12.47;9.97;;;;;;;4.15;68.35;99279.72;5015028;28;20080;-87
2022/03/08 01:17:48;;;;;;;13.63;11.43;;;;;;;3.42;68.68;99176.84;5015131;28;20045;-88
2022/03/08 01:20:15;;;;;;;12.77;10.00;;;;;;;4.31;68.70;99352.25;5012641;28;20018;-89
2022/03/08 01:22:41;;;;;;;11.97;10.17;;;;;;;4.19;68.37;99261.94;5012619;28;20030;-87
2022/03/08 01:33:54;;;;;;;14.40;11.43;;;;;;;3.60;68.11;99231.75;5216158;23;20042;-90
2022/03/08 01:36:21;;;;;;;12.17;10.17;;;;;;;4.21;68.25;99296.59;5017452;28;20065;-88
2022/03/08 01:38:47;;;;;;;13.70;11.10;;;;;;;5.25;68.17;99498.69;5010118;28;20032;-89
2022/03/08 01:41:13;;;;;;;13.53;10.63;;;;;;;3.85;68.33;99250.41;5016282;28;20086;-88
2022/03/08 01:53:25;;;;;;;13.20;11.37;;;;;;;3.09;68.00;99115.56;5168867;23;20054;-90
2022/03/08 02:26:07;;;;;;;15.40;12.33;;;;;;;3.69;68.36;99223.06;5493941;22;20033;-88
2022/03/08 03:05:31;;;;;;;13.03;10.67;;;;;;;2.08;68.09;99003.97;5741694;23;20033;-89
2022/03/08 03:08:06;;;;;;;;;;;;;;;4.85;68.82;99462.34;5044029;28;20018;-90
2022/03/08 03:22:12;;;;;;;15.63;11.67;;;;;;;3.61;67.81;99267.34;5411470;23;20043;-89
2022/03/08 03:45:12;;;;;;;15.60;11.77;;;;;;;3.13;67.91;99186.53;5652425;23;20041;-86
2022/03/08 03:55:56;;;;;;;13.90;11.47;;;;;;;2.76;67.97;99139.47;5380344;23;20045;-90
2022/03/08 03:58:26;;;;;;;15.53;10.93;;;;;;;4.83;68.40;99537.50;5060206;28;20077;-90
2022/03/08 04:30:33;;;;;;;14.83;12.17;;;;;;;2.87;68.23;99201.88;5589039;23;20049;-90
2022/03/08 04:32:59;;;;;;;14.87;11.43;;;;;;;1.70;68.42;98976.16;5059171;28;20037;-86
2022/03/08 04:35:25;;;;;;;16.07;11.83;;;;;;;3.06;68.35;99267.09;5059210;28;20013;-87
2022/03/08 04:37:51;;;;;;;17.87;12.57;;;;;;;3.20;68.67;99268.47;5058986;28;20044;-89
2022/03/08 04:40:17;;;;;;;19.93;12.87;;;;;;;2.46;68.32;99156.06;5059028;28;20010;-89
2022/03/08 04:42:43;;;;;;;16.77;12.90;;;;;;;3.02;68.61;99221.41;5041996;28;20071;-86
2022/03/08 04:45:10;;;;;;;16.07;13.70;;;;;;;1.58;68.40;99008.47;5058789;28;20040;-87
2022/03/08 04:47:37;;;;;;;17.10;12.83;;;;;;;1.96;68.29;99023.31;5041659;28;20028;-87
2022/03/08 05:03:15;;;;;;;22.80;17.47;;;;;;;4.69;68.65;99529.13;6064538;23;20229;-86
2022/03/08 05:05:41;;;;;;;20.10;15.47;;;;;;;1.37;68.16;98950.47;5040929;28;20041;-87
2022/03/08 05:08:06;;;;;;;18.83;14.40;;;;;;;3.59;68.47;99344.13;5058387;28;20039;-88
2022/03/08 05:10:32;;;;;;;16.57;14.27;;;;;;;2.04;68.31;99111.16;5058622;28;20030;-89
2022/03/08 05:12:59;;;;;;;17.30;13.43;;;;;;;2.25;68.01;99152.75;5058671;28;20013;-88
2022/03/08 05:15:27;;;;;;;18.03;13.50;;;;;;;3.37;68.40;99351.28;5058657;28;20019;-86
2022/03/08 05:17:52;;;;;;;19.00;14.40;;;;;;;1.69;68.18;99064.78;5041576;28;20097;-87
2022/03/08 05:20:18;;;;;;;20.37;14.73;;;;;;;1.99;68.36;99128.97;5058504;28;20043;-89
2022/03/08 05:22:43;;;;;;;17.33;13.53;;;;;;;3.10;68.04;99314.59;5041565;28;20009;-87
2022/03/08 05:33:30;;;;;;;26.83;17.97;;;;;;;2.93;67.86;99231.81;5681391;23;20075;-86
2022/03/08 05:35:55;;;;;;;26.87;19.63;;;;;;;4.43;67.83;99497.50;5021779;28;20025;-89
2022/03/08 05:38:21;;;;;;;24.77;18.30;;;;;;;3.58;67.71;99398.13;5628161;23;20060;-87
2022/03/08 05:40:46;;;;;;;20.80;15.27;;;;;;;4.67;68.00;99523.22;5041371;28;20044;-86
2022/03/08 05:43:12;;;;;;;24.80;16.90;;;;;;;2.24;67.96;99151.91;5041007;28;20033;-87
2022/03/08 05:45:38;;;;;;;23.37;17.47;;;;;;;2.84;67.80;99307.28;5058158;28;20040;-88
2022/03/08 05:48:04;;;;;;;27.43;19.33;;;;;;;2.69;67.57;99206.13;5041227;28;20021;-86
2022/03/08 06:03:26;;;;;;;26.70;19.33;;;;;;;2.58;67.66;99190.63;5513745;23;20058;-89
2022/03/08 06:05:51;;;;;;;23.47;18.00;;;;;;;4.63;68.01;99550.63;5038194;28;20036;-86
2022/03/08 06:08:17;;;;;;;20.27;16.27;;;;;;;2.22;67.66;99172.84;5037856;28;20022;-87
2022/03/08 06:10:43;;;;;;;23.50;16.90;;;;;;;1.97;67.62;99077.03;5038268;28;20025;-84
2022/03/08 06:21:44;;;;;;;21.37;17.33;;;;;;;2.48;67.73;99196.66;5872208;23;20053;-85
2022/03/08 06:27:35;;;;;;;18.43;14.30;;;;;;;4.29;67.33;99511.00;5518519;23;20181;-89
2022/03/08 06:33:19;;;;;;;23.23;17.40;;;;;;;3.48;67.43;99379.03;6003340;23;20057;-86
2022/03/08 06:35:45;;;;;;;17.87;15.43;;;;;;;2.43;67.57;99224.06;5043983;28;20083;-88
2022/03/08 06:41:44;;;;;;;17.60;13.53;;;;;;;3.30;67.44;99376.28;5659694;23;20041;-88
2022/03/08 06:44:11;;;;;;;20.63;15.90;;;;;;;3.02;67.48;99314.47;5060534;28;20046;-85
2022/03/08 06:46:41;;;;;;;17.47;13.67;;;;;;;2.01;67.31;99094.00;5043656;28;20033;-87
2022/03/08 06:49:07;;;;;;;20.97;16.13;;;;;;;4.29;67.44;99529.28;5059531;28;20010;-88
2022/03/08 06:51:32;;;;;;;17.75;14.90;;;;;;;4.44;67.19;99556.66;5058795;28;20013;-85
2022/03/08 06:53:58;;;;;;;20.07;15.40;;;;;;;4.98;67.56;99646.81;5058954;28;20804;-87
2022/03/08 06:56:23;;;;;;;21.13;15.27;;;;;;;2.89;67.33;99267.75;5049296;28;20014;-87
2022/03/08 07:01:24;;;;;;;19.40;15.00;;;;;;;2.59;66.80;99168.81;5094819;23;20059;-90
2022/03/08 07:03:49;;;;;;;18.90;13.83;;;;;;;2.52;66.92;99207.63;5039295;28;20045;-86
2022/03/08 07:06:15;;;;;;;20.13;16.13;;;;;;;3.15;67.03;99249.81;5056030;28;20044;-89
2022/03/08 07:08:40;;;;;;;22.73;17.87;;;;;;;3.84;66.97;99364.47;5029140;28;20025;-87
2022/03/08 07:11:06;;;;;;;29.80;21.87;;;;;;;4.63;67.05;99526.25;5048953;28;20028;-89
2022/03/08 07:13:37;;;;;;;22.67;17.43;;;;;;;5.21;66.62;99617.72;5043596;28;20041;-89
2022/03/08 07:16:03;;;;;;;21.77;16.55;;;;;;;5.05;67.17;99584.25;5036551;28;20186;-88
2022/03/08 07:18:29;;;;;;;21.53;16.40;;;;;;;3.57;66.74;99315.56;5041735;28;20049;-92
2022/03/08 07:20:54;;;;;;;22.13;16.77;;;;;;;3.18;66.59;99237.31;5019594;28;20098;-91
2022/03/08 07:23:20;;;;;;;20.17;17.00;;;;;;;4.66;66.13;99492.81;5036108;28;20025;-90
2022/03/08 07:25:46;;;;;;;24.00;18.83;;;;;;;4.31;66.08;99474.28;5044919;28;20513;-90
2022/03/08 07:28:12;;;;;;;18.47;14.20;;;;;;;3.41;66.29;99346.63;5051477;28;20017;-88
2022/03/08 07:30:38;;;;;;;19.03;15.13;;;;;;;3.36;65.91;99309.66;5052546;28;20514;-88
2022/03/08 07:33:03;;;;;;;25.97;19.27;;;;;;;4.09;66.22;99394.41;5053191;28;20029;-91
2022/03/08 07:35:29;;;;;;;18.10;14.73;;;;;;;4.00;66.11;99403.91;5046739;28;20084;-89
2022/03/08 07:37:54;;;;;;;19.73;14.97;;;;;;;4.44;66.01;99482.66;5021150;28;20036;-92
2022/03/08 07:40:20;;;;;;;19.33;16.20;;;;;;;4.77;65.49;99483.97;5020247;28;20074;-90
2022/03/08 07:42:45;;;;;;;22.63;17.00;;;;;;;5.26;65.87;99563.16;5056499;28;20410;-90
2022/03/08 07:45:11;;;;;;;13.03;11.40;;;;;;;4.52;65.84;99474.94;5060899;28;20028;-91
2022/03/08 07:50:22;;;;;;;13.97;10.80;;;;;;;2.98;65.82;99235.69;5077957;23;20057;-89
2022/03/08 07:52:48;;;;;;;13.30;9.87;;;;;;;5.11;65.86;99537.41;5047215;28;20034;-92
2022/03/08 07:55:14;;;;;;;14.77;12.00;;;;;;;5.37;65.51;99552.50;5036357;28;20441;-91
2022/03/08 07:57:39;;;;;;;15.03;12.17;;;;;;;4.61;65.31;99466.25;5017357;28;20018;-93
2022/03/08 08:00:06;;;;;;;12.60;10.10;;;;;;;4.48;65.38;99421.31;5008668;28;20494;-92
2022/03/08 08:02:32;;;;;;;11.20;9.60;;;;;;;5.48;65.28;99560.16;5005261;28;20065;-91
2022/03/08 08:04:58;;;;;;;15.17;12.87;;;;;;;4.41;65.16;99404.50;5002072;28;20061;-92
2022/03/08 08:07:23;;;;;;;17.47;13.13;;;;;;;3.90;64.99;99300.41;4995048;28;20045;-92
2022/03/08 08:09:49;;;;;;;13.47;10.50;;;;;;;3.78;64.96;99290.13;4994450;28;20037;-93
2022/03/08 08:12:14;;;;;;;13.20;11.37;;;;;;;4.79;64.96;99422.69;4996450;28;20022;-92
2022/03/08 08:14:40;;;;;;;13.55;12.05;;;;;;;4.34;65.24;99367.66;5009728;28;20037;-92
2022/03/08 08:17:05;;;;;;;12.55;11.15;;;;;;;4.72;65.08;99386.81;5014293;28;20052;-92
2022/03/08 08:19:31;;;;;;;12.13;10.87;;;;;;;3.97;64.92;99246.66;5006283;28;20030;-92
2022/03/08 08:21:57;;;;;;;11.38;10.20;;;;;;;4.90;65.11;99436.56;5000634;28;20084;-93
2022/03/08 08:24:23;;;;;;;11.20;10.07;;;;;;;5.29;64.80;99490.41;5018558;28;20037;-93
2022/03/08 08:26:49;;;;;;;11.80;10.00;;;;;;;5.87;64.46;99558.16;5007661;28;20065;-92
2022/03/08 08:29:14;;;;;;;11.13;8.73;;;;;;;5.27;63.84;99453.06;5005434;28;20069;-92
2022/03/08 08:31:40;;;;;;;11.43;9.97;;;;;;;5.05;64.05;99445.56;5013689;28;20037;-92
2022/03/08 08:34:05;;;;;;;18.03;13.47;;;;;;;5.78;64.42;99556.41;4996244;28;20498;-91
2022/03/08 08:36:31;;;;;;;13.43;10.55;;;;;;;3.23;63.65;99163.03;5050550;28;20030;-89
2022/03/08 08:38:56;;;;;;;10.30;9.00;;;;;;;3.92;64.15;99227.97;5037556;28;20045;-91
2022/03/08 08:41:22;;;;;;;11.30;9.60;;;;;;;5.91;63.65;99571.81;5030841;28;20030;-92
2022/03/08 08:43:47;;;;;;;15.75;12.18;;;;;;;5.93;63.76;99547.09;5016277;28;20029;-91
2022/03/08 08:46:13;;;;;;;15.18;12.38;;;;;;;5.78;63.92;99504.03;5030540;28;20055;-92
2022/03/08 08:48:38;;;;;;;12.05;10.80;;;;;;;4.44;63.77;99276.97;5017937;28;20066;-92
2022/03/08 08:51:04;;;;;;;8.68;7.80;;;;;;;5.68;63.21;99490.16;5010985;28;20025;-92
2022/03/08 08:53:29;;;;;;;8.65;7.75;;;;;;;5.48;62.75;99441.50;5015796;28;20021;-93
2022/03/08 08:55:55;;;;;;;14.00;9.55;;;;;;;5.99;63.00;99549.16;5035401;28;20085;-92
2022/03/08 08:58:20;;;;;;;10.70;9.60;;;;;;;4.93;63.13;99386.56;5032639;28;20057;-92
2022/03/08 09:00:46;;;;;;;11.80;9.85;;;;;;;5.96;63.21;99532.91;5030867;28;20025;-93
2022/03/08 09:03:14;;;;;;;13.25;11.30;;;;;;;3.72;62.75;99194.09;5032066;28;20088;-93
2022/03/08 09:05:45;;;;;;;14.35;11.05;;;;;;;5.63;62.86;99477.50;5032151;28;20075;-93
2022/03/08 09:08:11;;;;;;;11.77;9.43;;;;;;;6.07;62.76;99530.06;5032004;28;20022;-92
2022/03/08 09:10:37;;;;;;;8.80;7.80;;;;;;;5.98;62.86;99517.88;5013191;28;20040;-92
2022/03/08 09:13:03;;;;;;;8.77;7.88;;;;;;;5.03;62.67;99369.03;5045931;28;20018;-91
2022/03/08 09:15:29;;;;;;;8.32;7.28;;;;;;;3.83;62.57;99174.81;5037869;28;20030;-88
2022/03/08 09:17:55;;;;;;;9.55;8.55;;;;;;;6.01;62.83;99533.28;5033342;28;20036;-92
2022/03/08 09:20:22;;;;;;;10.60;9.17;;;;;;;5.43;62.87;99444.56;5054735;28;20057;-91
2022/03/08 09:22:49;;;;;;;9.57;8.57;;;;;;;4.59;63.02;99342.69;5040068;28;20041;-92
2022/03/08 09:25:14;;;;;;;8.43;7.55;;;;;;;5.47;62.92;99453.78;5034647;28;20029;-93
2022/03/08 09:27:40;;;;;;;11.35;8.88;;;;;;;6.09;62.85;99551.72;5031560;28;20036;-92
2022/03/08 09:30:06;;;;;;;10.82;9.52;;;;;;;5.69;62.76;99479.53;5038175;28;20037;-93
2022/03/08 09:32:32;;;;;;;9.43;8.43;;;;;;;4.98;62.67;99398.25;5049946;28;20075;-93
2022/03/08 09:34:58;;;;;;;9.45;8.40;;;;;;;6.10;62.83;99561.22;5017234;28;20034;-93
2022/03/08 09:37:23;;;;;;;10.65;9.48;;;;;;;4.27;62.67;99235.91;5031472;28;20044;-92
2022/03/08 09:39:49;;;;;;;10.98;9.85;;;;;;;5.53;62.77;99436.66;5016786;28;20489;-93
2022/03/08 09:42:15;;;;;;;9.98;7.82;;;;;;;6.24;62.43;99559.88;5027119;28;20494;-93
2022/03/08 09:44:41;;;;;;;9.63;8.35;;;;;;;4.90;62.51;99343.22;5012994;28;20030;-93
2022/03/08 09:47:07;;;;;;;11.35;9.65;;;;;;;5.64;62.93;99457.38;5019122;28;20033;-93
2022/03/08 09:49:32;;;;;;;15.07;11.73;;;;;;;5.86;62.83;99498.03;5015360;28;20054;-93
2022/03/08 09:51:58;;;;;;;12.00;10.10;;;;;;;6.17;62.70;99553.59;5017757;28;20025;-93
2022/03/08 09:54:23;;;;;;;14.55;11.50;;;;;;;5.52;62.37;99485.56;5034521;28;20049;-92
2022/03/08 09:56:49;;;;;;;14.30;10.38;;;;;;;5.13;62.50;99408.22;5036927;28;20528;-93
2022/03/08 09:59:19;;;;;;;12.27;9.80;;;;;;;5.68;62.58;99483.13;5028948;28;20030;-93
2022/03/08 10:01:46;;;;;;;13.43;11.10;;;;;;;5.53;62.43;99453.19;5033622;28;20555;-92
2022/03/08 10:04:17;;;;;;;10.77;8.98;;;;;;;5.53;62.33;99450.56;4999715;28;20091;-92
2022/03/08 10:06:46;;;;;;;13.70;10.70;;;;;;;5.56;62.54;99496.59;5008738;28;20076;-93
2022/03/08 10:09:17;;;;;;;11.18;9.15;;;;;;;5.47;62.86;99498.28;5025526;28;20069;-93
2022/03/08 10:11:43;;;;;;;14.68;11.43;;;;;;;5.98;63.09;99538.84;5010995;28;20124;-92
2022/03/08 10:14:14;;;;;;;13.90;11.02;;;;;;;4.14;63.09;99262.38;5019923;28;20355;-92
2022/03/08 10:16:43;;;;;;;15.27;11.68;;;;;;;5.74;62.84;99523.63;5025726;28;20082;-92
2022/03/08 10:19:12;;;;;;;12.25;10.68;;;;;;;4.67;62.92;99362.88;5024655;28;20048;-93
2022/03/08 10:21:43;;;;;;;12.73;10.27;;;;;;;5.95;62.98;99570.56;5031541;28;20039;-91
2022/03/08 10:24:32;;;;;;;15.23;11.70;;;;;;;5.69;63.03;99559.91;5006937;28;20488;-92
2022/03/08 10:27:00;;;;;;;16.83;11.25;;;;;;;5.04;62.80;99457.84;5030354;28;20051;-92
2022/03/08 10:29:37;;;;;;;13.30;11.27;;;;;;;4.98;62.50;99468.88;5037153;28;20031;-92
2022/03/08 10:32:19;;;;;;;15.80;11.32;;;;;;;4.74;62.33;99370.00;5004548;28;20022;-92
2022/03/08 10:34:47;;;;;;;17.27;11.80;;;;;;;4.90;62.80;99420.88;5006784;28;20052;-93
2022/03/08 10:37:19;;;;;;;18.75;12.93;;;;;;;5.46;62.71;99491.41;5039902;28;20160;-92
2022/03/08 10:40:01;;;;;;;19.70;14.32;;;;;;;5.22;62.41;99442.22;5021405;28;20052;-92
2022/03/08 10:42:29;;;;;;;18.63;14.00;;;;;;;5.78;62.47;99542.50;5033644;28;20025;-93
2022/03/08 10:45:05;;;;;;;20.33;14.82;;;;;;;5.49;62.26;99483.25;5035660;28;20127;-93
2022/03/08 10:47:43;;;;;;;20.70;14.90;;;;;;;6.22;62.21;99567.91;5017271;28;20037;-92
2022/03/08 10:50:10;;;;;;;19.63;15.18;;;;;;;5.96;62.04;99512.78;5013699;28;20058;-93
2022/03/08 10:52:38;;;;;;;17.30;13.40;;;;;;;6.02;61.84;99524.47;4998539;28;20026;-93
2022/03/08 10:55:31;;;;;;;22.93;16.83;;;;;;;6.10;61.57;99526.34;5000727;28;20033;-92
2022/03/08 10:57:58;;;;;;;27.67;19.92;;;;;;;6.52;61.68;99553.56;5009188;28;20030;-93
2022/03/08 11:00:38;;;;;;;27.75;18.40;;;;;;;6.15;61.38;99519.66;4978440;28;20034;-93
2022/03/08 11:03:15;;;;;;;30.70;20.95;;;;;;;6.14;61.38;99515.41;4981924;28;20035;-93
2022/03/08 11:05:52;;;;;;;35.05;22.70;;;;;;;5.77;61.51;99449.97;4974757;28;20026;-93
2022/03/08 11:08:21;;;;;;;31.55;21.85;;;;;;;6.49;61.46;99526.81;4973768;28;20034;-93
2022/03/08 11:10:47;;;;;;;29.95;18.98;;;;;;;6.66;60.94;99552.19;4986956;28;20026;-92
2022/03/08 11:13:15;;;;;;;29.17;21.23;;;;;;;6.63;61.24;99545.47;4980908;28;20034;-93
2022/03/08 11:15:45;;;;;;;25.90;19.67;;;;;;;5.83;61.03;99427.59;4983764;28;20027;-93
2022/03/08 11:18:12;;;;;;;26.90;21.27;;;;;;;5.38;60.83;99370.88;4990575;28;20038;-94
2022/03/08 11:20:39;;;;;;;31.02;21.23;;;;;;;6.65;61.28;99540.06;4977970;28;20097;-92
2022/03/08 11:23:06;;;;;;;30.38;21.60;;;;;;;6.75;61.33;99535.56;4979856;28;20034;-93
2022/03/08 11:25:35;;;;;;;29.05;22.35;;;;;;;6.83;61.05;99561.03;4979690;28;20496;-93
2022/03/08 11:28:02;;;;;;;30.90;22.70;;;;;;;6.08;61.02;99413.78;4986596;28;20053;-93
2022/03/08 11:30:31;;;;;;;23.02;17.73;;;;;;;6.73;60.53;99518.34;4983460;28;20026;-93
2022/03/08 11:33:20;;;;;;;20.38;16.40;;;;;;;6.91;59.84;99537.47;4975433;28;20479;-93
2022/03/08 11:36:26;;;;;;;25.23;19.38;;;;;;;6.91;59.05;99530.44;4973814;28;20040;-93
2022/03/08 11:39:16;;;;;;;22.77;18.17;;;;;;;6.88;59.52;99532.53;4951935;29;20043;-93
2022/03/08 11:41:44;;;;;;;25.00;20.63;;;;;;;6.23;59.97;99443.72;4982214;28;20041;-93
2022/03/08 11:44:32;;;;;;;23.58;18.02;;;;;;;6.81;59.58;99542.81;4975861;28;20508;-92
2022/03/08 11:47:09;;;;;;;22.88;17.65;;;;;;;6.09;59.92;99452.13;4992881;28;20037;-92
2022/03/08 11:49:55;;;;;;;20.70;15.52;;;;;;;6.74;59.38;99528.69;4990614;28;20425;-93
2022/03/08 11:52:36;;;;;;;22.60;17.58;;;;;;;6.76;59.54;99524.09;4993393;28;20032;-90
2022/03/08 11:55:08;;;;;;;20.88;16.63;;;;;;;5.42;60.15;99291.06;4986414;28;20037;-90
2022/03/08 11:57:55;;;;;;;14.18;11.35;;;;;;;6.79;60.00;99543.97;5006038;28;20049;-91
2022/03/08 12:00:31;;;;;;;17.80;14.70;;;;;;;5.95;60.07;99445.63;4992195;28;20030;-92
2022/03/08 12:03:02;;;;;;;17.52;15.63;;;;;;;6.77;60.06;99523.13;4992164;28;20022;-92
2022/03/08 12:05:39;;;;;;;21.05;16.63;;;;;;;6.77;60.08;99530.16;4993530;28;20034;-92
2022/03/08 12:08:31;;;;;;;22.80;18.38;;;;;;;6.61;59.41;99494.13;4994008;28;20030;-93
2022/03/08 12:11:30;;;;;;;23.50;18.58;;;;;;;5.98;60.33;99399.94;4998047;28;20136;-92
2022/03/08 12:14:03;;;;;;;22.67;17.83;;;;;;;6.37;59.68;99445.78;4980502;28;20503;-93
2022/03/08 12:16:30;;;;;;;21.08;15.85;;;;;;;6.77;59.88;99512.63;4976971;28;20426;-92
2022/03/08 12:18:58;;;;;;;24.95;18.23;;;;;;;5.16;59.67;99258.75;4995894;28;20161;-91
2022/03/08 12:21:24;;;;;;;23.65;17.27;;;;;;;6.80;60.14;99503.63;4987751;28;20553;-91
2022/03/08 12:24:00;;;;;;;26.10;20.25;;;;;;;6.79;59.77;99508.03;5011112;28;20168;-91
2022/03/08 12:26:38;;;;;;;21.83;16.88;;;;;;;5.66;60.00;99364.59;5012546;28;20037;-91
2022/03/08 12:29:11;;;;;;;15.70;13.52;;;;;;;6.76;60.08;99510.97;4997952;28;20049;-91
2022/03/08 12:31:56;;;;;;;14.82;12.65;;;;;;;6.78;60.96;99516.06;4986902;28;20070;-92
2022/03/08 12:34:39;;;;;;;21.77;15.65;;;;;;;6.80;60.60;99501.81;4990013;28;20027;-91
2022/03/08 12:37:27;;;;;;;18.77;15.30;;;;;;;6.85;60.57;99498.72;4991009;28;20022;-91
2022/03/08 12:39:54;;;;;;;19.83;15.38;;;;;;;6.07;60.17;99448.81;4998190;28;20033;-91
2022/03/08 12:42:34;;;;;;;16.67;14.48;;;;;;;6.93;59.96;99504.84;4991721;28;20030;-90
2022/03/08 12:45:07;;;;;;;18.63;15.05;;;;;;;6.63;59.99;99453.63;4990139;28;20030;-91
2022/03/08 12:47:36;;;;;;;13.88;12.15;;;;;;;6.57;59.61;99416.72;4984128;28;20019;-90
2022/03/08 12:50:22;;;;;;;14.43;12.93;;;;;;;6.87;59.25;99460.84;4989206;28;20073;-91
2022/03/08 12:52:50;;;;;;;11.57;10.30;;;;;;;6.64;59.28;99407.25;4990333;28;20040;-91
2022/03/08 12:55:27;;;;;;;12.98;11.57;;;;;;;7.40;59.11;99479.94;4992456;28;20122;-90
2022/03/08 12:57:58;;;;;;;14.00;12.48;;;;;;;7.47;58.19;99483.59;4990245;28;20022;-92
2022/03/08 13:00:34;;;;;;;16.95;11.98;;;;;;;7.48;58.73;99482.63;4990531;28;20037;-90
2022/03/08 13:03:02;;;;;;;15.15;13.05;;;;;;;7.12;58.22;99440.78;4980727;28;20174;-90
2022/03/08 13:05:31;;;;;;;15.75;13.00;;;;;;;7.54;57.49;99490.69;4981355;28;20058;-91
2022/03/08 13:07:57;;;;;;;15.45;12.77;;;;;;;7.48;57.70;99499.22;4990199;28;20023;-90
2022/03/08 13:10:24;;;;;;;14.18;12.55;;;;;;;6.88;57.74;99420.50;4994275;28;20036;-91
2022/03/08 13:12:52;;;;;;;15.00;13.45;;;;;;;7.40;57.99;99479.94;4997630;28;20076;-90
2022/03/08 13:15:20;;;;;;;15.27;13.10;;;;;;;7.34;57.65;99482.22;4991204;28;20023;-91
2022/03/08 13:17:48;;;;;;;18.58;15.27;;;;;;;7.27;57.85;99475.97;4999698;28;20113;-91
2022/03/08 13:20:40;;;;;;;25.23;19.35;;;;;;;6.96;57.34;99441.53;4992957;28;20026;-91
2022/03/08 13:23:15;;;;;;;21.10;17.27;;;;;;;7.19;57.12;99490.88;4988199;28;20042;-90
2022/03/08 13:25:42;;;;;;;21.67;16.85;;;;;;;6.23;57.31;99332.78;4989922;28;20049;-91
2022/03/08 13:28:19;;;;;;;21.00;17.17;;;;;;;6.48;57.31;99378.31;5001847;28;20038;-92
2022/03/08 13:30:47;;;;;;;19.05;15.35;;;;;;;6.51;57.10;99407.66;5007654;28;20030;-90
2022/03/08 13:33:31;;;;;;;16.27;13.73;;;;;;;7.03;57.76;99477.66;5010455;28;20491;-91
2022/03/08 13:36:02;;;;;;;17.98;15.18;;;;;;;6.03;57.35;99333.00;5027205;28;20029;-90
2022/03/08 13:38:34;;;;;;;17.53;14.57;;;;;;;6.86;57.25;99463.63;5025456;28;20041;-90
2022/03/08 13:41:05;;;;;;;19.70;15.45;;;;;;;6.05;57.36;99385.25;5015908;28;20304;-90
2022/03/08 13:43:35;;;;;;;12.52;10.73;;;;;;;5.83;57.46;99315.75;5014125;28;20161;-90
2022/03/08 13:46:03;;;;;;;18.10;14.63;;;;;;;6.82;57.77;99463.13;5013067;28;20040;-90
2022/03/08 13:48:30;;;;;;;16.38;14.07;;;;;;;5.34;57.12;99277.91;4996676;28;20037;-90
2022/03/08 13:51:03;;;;;;;16.70;14.68;;;;;;;5.91;56.95;99342.06;5005053;28;20042;-90
2022/03/08 13:53:30;;;;;;;16.65;14.30;;;;;;;6.86;56.89;99485.44;5015904;28;20021;-90
2022/03/08 13:55:57;;;;;;;13.55;11.52;;;;;;;6.64;56.47;99438.72;5001814;28;20036;-90
2022/03/08 13:58:25;;;;;;;14.13;12.18;;;;;;;6.51;56.71;99420.78;5013878;28;20022;-90
2022/03/08 14:00:52;;;;;;;15.60;12.98;;;;;;;6.94;56.63;99472.38;5009098;28;20057;-90
2022/03/08 14:03:20;;;;;;;15.43;13.57;;;;;;;5.47;55.94;99231.22;5012618;28;20108;-89
2022/03/08 14:06:01;;;;;;;15.18;13.40;;;;;;;6.91;56.27;99469.25;5041738;28;20067;-89
2022/03/08 14:08:32;;;;;;;16.90;12.80;;;;;;;6.23;55.86;99369.47;5030536;28;20064;-90
2022/03/08 14:11:08;;;;;;;16.83;14.50;;;;;;;5.53;55.77;99292.63;5036592;28;20033;-91
2022/03/08 14:13:36;;;;;;;18.30;14.10;;;;;;;6.16;56.06;99377.13;5040448;28;20056;-91
2022/03/08 14:16:06;;;;;;;18.63;14.23;;;;;;;5.69;56.05;99295.38;5040392;28;20032;-92
2022/03/08 14:18:49;;;;;;;18.45;14.98;;;;;;;6.69;55.46;99462.72;5031841;28;20029;-92
2022/03/08 14:21:30;;;;;;;19.88;15.77;;;;;;;6.71;56.02;99452.91;5019076;28;20033;-92
2022/03/08 14:24:07;;;;;;;17.40;14.15;;;;;;;6.50;56.11;99439.28;5005039;28;20029;-91
2022/03/08 14:26:32;;;;;;;21.23;14.60;;;;;;;5.05;56.39;99197.00;5006219;28;20026;-92
2022/03/08 14:29:01;;;;;;;20.83;16.52;;;;;;;6.06;56.31;99402.63;5011721;28;20412;-91
2022/03/08 14:31:27;;;;;;;22.52;17.52;;;;;;;6.52;57.00;99466.19;5013327;28;20030;-92
2022/03/08 14:33:55;;;;;;;25.80;19.38;;;;;;;5.95;56.76;99384.53;5012595;28;20037;-90
2022/03/08 14:36:35;;;;;;;32.58;22.55;;;;;;;4.93;56.81;99247.91;5015188;28;20040;-92
2022/03/08 14:39:20;;;;;;;24.17;18.95;;;;;;;6.02;56.34;99420.44;5017650;28;20026;-91
2022/03/08 14:41:55;;;;;;;19.20;15.55;;;;;;;6.42;57.02;99458.41;5034407;28;20080;-91
2022/03/08 14:44:20;;;;;;;19.80;15.73;;;;;;;6.02;56.94;99414.38;5017184;28;20036;-91
2022/03/08 14:46:46;;;;;;;24.55;17.73;;;;;;;5.67;56.90;99353.13;5007433;28;20034;-90
2022/03/08 14:49:12;;;;;;;23.33;17.67;;;;;;;5.76;57.36;99393.31;5014636;28;20050;-92
2022/03/08 14:51:37;;;;;;;21.50;16.33;;;;;;;5.97;57.08;99400.91;5016589;28;20052;-91
2022/03/08 14:54:04;;;;;;;18.60;14.90;;;;;;;5.20;57.42;99318.53;5012481;28;20045;-91
2022/03/08 14:56:29;;;;;;;19.33;15.20;;;;;;;6.41;57.01;99485.63;5016956;28;20518;-91
2022/03/08 14:58:54;;;;;;;20.02;16.70;;;;;;;5.06;57.57;99290.22;5014527;28;20060;-92
2022/03/08 15:01:20;;;;;;;17.95;15.07;;;;;;;5.56;57.57;99382.19;5018346;28;20406;-93
2022/03/08 15:03:46;;;;;;;19.77;16.38;;;;;;;5.32;57.60;99353.16;5029022;28;20033;-92
2022/03/08 15:06:11;;;;;;;17.85;15.65;;;;;;;4.13;57.70;99131.91;5013604;28;20148;-93
2022/03/08 15:08:37;;;;;;;20.02;16.60;;;;;;;6.03;58.14;99450.94;5000754;28;20093;-94
2022/03/08 15:11:02;;;;;;;23.65;17.27;;;;;;;6.16;58.04;99483.78;5006657;28;20018;-90
2022/03/08 15:13:28;;;;;;;20.30;15.07;;;;;;;6.26;58.14;99506.31;5018987;28;20429;-93
2022/03/08 15:15:53;;;;;;;18.73;14.10;;;;;;;5.23;57.91;99331.31;5006285;28;20025;-93
2022/03/08 15:18:19;;;;;;;16.73;14.13;;;;;;;5.47;57.75;99350.84;5011787;28;20028;-91
2022/03/08 15:20:45;;;;;;;20.33;14.63;;;;;;;5.47;57.95;99353.44;5016535;28;20081;-92
2022/03/08 15:23:11;;;;;;;20.50;15.63;;;;;;;5.90;57.96;99441.78;5013489;28;20033;-93
2022/03/08 15:25:36;;;;;;;22.00;17.70;;;;;;;6.18;57.99;99482.66;5023177;28;20032;-92
2022/03/08 15:28:02;;;;;;;21.38;16.35;;;;;;;5.70;57.58;99420.13;5009462;28;20026;-95
2022/03/08 15:30:29;;;;;;;19.73;16.77;;;;;;;4.91;58.36;99305.63;5027440;28;20512;-92
2022/03/08 15:32:56;;;;;;;23.33;17.55;;;;;;;4.96;58.38;99340.00;4999936;28;20029;-91
2022/03/08 15:35:21;;;;;;;24.50;17.90;;;;;;;5.00;58.20;99311.75;5001378;28;20421;-92
2022/03/08 15:37:47;;;;;;;20.63;15.93;;;;;;;4.11;58.45;99233.09;5023086;28;20032;-92
2022/03/08 15:40:13;;;;;;;23.35;18.00;;;;;;;5.02;58.52;99386.50;5034174;28;20052;-93
2022/03/08 15:42:39;;;;;;;23.27;18.40;;;;;;;5.43;58.27;99444.56;5016020;28;20034;-92
2022/03/08 15:45:06;;;;;;;24.88;19.60;;;;;;;4.93;58.71;99322.00;5015626;28;20033;-94
2022/03/08 15:47:32;;;;;;;22.33;18.42;;;;;;;6.09;58.53;99508.97;5034138;28;20421;-91
2022/03/08 15:49:58;;;;;;;23.13;18.70;;;;;;;5.07;58.65;99370.38;4994316;28;20046;-90
2022/03/08 15:52:24;;;;;;;28.63;21.55;;;;;;;6.03;59.02;99518.25;4985572;28;20061;-92
2022/03/08 15:54:49;;;;;;;33.33;25.95;;;;;;;4.81;58.81;99333.63;4988513;28;20031;-92
2022/03/08 15:57:15;;;;;;;25.58;19.42;;;;;;;4.61;58.66;99327.69;4973823;28;20553;-93